sensor_id;sensor_type;location;lat;lon;timestamp;P1;durP1;ratioP1;P2;durP2;ratioP2
11711;SDS011;5912;51.034;6.984;2023-04-15T00:00:04;7.40;;;4.00;;
11711;SDS011;5912;51.034;6.984;2023-04-15T00:02:30;4.83;;;3.37;;
11711;SDS011;5912;51.034;6.984;2023-04-15T00:04:56;7.32;;;3.63;;
11711;SDS011;5912;51.034;6.984;2023-04-15T00:07:21;5.13;;;2.93;;
11711;SDS011;5912;51.034;6.984;2023-04-15T00:09:46;7.33;;;2.87;;
11711;SDS011;5912;51.034;6.984;2023-04-15T00:12:11;3.90;;;2.73;;
11711;SDS011;5912;51.034;6.984;2023-04-15T00:14:37;3.87;;;2.33;;
11711;SDS011;5912;51.034;6.984;2023-04-15T00:17:03;4.88;;;2.80;;
11711;SDS011;5912;51.034;6.984;2023-04-15T00:19:28;4.43;;;2.63;;
11711;SDS011;5912;51.034;6.984;2023-04-15T00:21:54;3.20;;;2.30;;
11711;SDS011;5912;51.034;6.984;2023-04-15T00:24:20;3.23;;;2.10;;
11711;SDS011;5912;51.034;6.984;2023-04-15T00:26:45;5.67;;;2.23;;
11711;SDS011;5912;51.034;6.984;2023-04-15T00:29:11;3.08;;;2.08;;
11711;SDS011;5912;51.034;6.984;2023-04-15T00:31:37;3.07;;;1.80;;
11711;SDS011;5912;51.034;6.984;2023-04-15T00:34:02;4.07;;;2.40;;
11711;SDS011;5912;51.034;6.984;2023-04-15T00:36:28;2.53;;;2.30;;
11711;SDS011;5912;51.034;6.984;2023-04-15T00:38:53;4.87;;;1.87;;
11711;SDS011;5912;51.034;6.984;2023-04-15T00:41:19;3.80;;;2.37;;
11711;SDS011;5912;51.034;6.984;2023-04-15T00:43:44;2.93;;;2.03;;
11711;SDS011;5912;51.034;6.984;2023-04-15T00:46:10;3.97;;;2.13;;
11711;SDS011;5912;51.034;6.984;2023-04-15T00:48:38;3.33;;;1.77;;
11711;SDS011;5912;51.034;6.984;2023-04-15T00:51:04;3.33;;;2.10;;
11711;SDS011;5912;51.034;6.984;2023-04-15T00:53:31;3.30;;;2.13;;
11711;SDS011;5912;51.034;6.984;2023-04-15T00:55:56;2.53;;;2.10;;
11711;SDS011;5912;51.034;6.984;2023-04-15T00:58:21;3.13;;;2.20;;
11711;SDS011;5912;51.034;6.984;2023-04-15T01:00:47;3.53;;;2.07;;
11711;SDS011;5912;51.034;6.984;2023-04-15T01:03:13;2.50;;;2.03;;
11711;SDS011;5912;51.034;6.984;2023-04-15T01:05:39;3.63;;;1.87;;
11711;SDS011;5912;51.034;6.984;2023-04-15T01:08:05;3.47;;;2.53;;
11711;SDS011;5912;51.034;6.984;2023-04-15T01:10:31;4.00;;;2.10;;
11711;SDS011;5912;51.034;6.984;2023-04-15T01:12:57;5.57;;;2.17;;
11711;SDS011;5912;51.034;6.984;2023-04-15T01:15:22;3.50;;;2.37;;
11711;SDS011;5912;51.034;6.984;2023-04-15T01:17:48;4.47;;;2.73;;
11711;SDS011;5912;51.034;6.984;2023-04-15T01:20:13;2.30;;;2.00;;
11711;SDS011;5912;51.034;6.984;2023-04-15T01:22:40;5.80;;;2.40;;
11711;SDS011;5912;51.034;6.984;2023-04-15T01:25:08;3.83;;;2.27;;
11711;SDS011;5912;51.034;6.984;2023-04-15T01:27:36;2.67;;;1.87;;
11711;SDS011;5912;51.034;6.984;2023-04-15T01:30:04;3.80;;;2.30;;
11711;SDS011;5912;51.034;6.984;2023-04-15T01:32:30;3.13;;;2.10;;
11711;SDS011;5912;51.034;6.984;2023-04-15T01:34:55;3.33;;;2.37;;
11711;SDS011;5912;51.034;6.984;2023-04-15T01:37:21;3.23;;;2.03;;
11711;SDS011;5912;51.034;6.984;2023-04-15T01:39:46;3.30;;;2.27;;
11711;SDS011;5912;51.034;6.984;2023-04-15T01:42:11;2.23;;;2.00;;
11711;SDS011;5912;51.034;6.984;2023-04-15T01:44:37;3.03;;;2.07;;
11711;SDS011;5912;51.034;6.984;2023-04-15T01:47:02;2.90;;;2.07;;
11711;SDS011;5912;51.034;6.984;2023-04-15T01:49:27;3.53;;;2.20;;
11711;SDS011;5912;51.034;6.984;2023-04-15T01:51:53;3.83;;;2.20;;
11711;SDS011;5912;51.034;6.984;2023-04-15T01:54:18;3.73;;;2.10;;
11711;SDS011;5912;51.034;6.984;2023-04-15T01:56:44;5.57;;;2.60;;
11711;SDS011;5912;51.034;6.984;2023-04-15T01:59:09;3.07;;;2.20;;
11711;SDS011;5912;51.034;6.984;2023-04-15T02:01:35;3.40;;;2.40;;
11711;SDS011;5912;51.034;6.984;2023-04-15T02:04:00;3.77;;;2.37;;
11711;SDS011;5912;51.034;6.984;2023-04-15T02:06:25;3.03;;;2.40;;
11711;SDS011;5912;51.034;6.984;2023-04-15T02:08:52;4.20;;;2.30;;
11711;SDS011;5912;51.034;6.984;2023-04-15T02:11:17;3.20;;;2.10;;
11711;SDS011;5912;51.034;6.984;2023-04-15T02:13:43;3.60;;;1.97;;
11711;SDS011;5912;51.034;6.984;2023-04-15T02:16:15;2.27;;;1.80;;
11711;SDS011;5912;51.034;6.984;2023-04-15T02:18:42;2.17;;;1.97;;
11711;SDS011;5912;51.034;6.984;2023-04-15T02:21:09;4.10;;;2.30;;
11711;SDS011;5912;51.034;6.984;2023-04-15T02:23:34;3.07;;;2.60;;
11711;SDS011;5912;51.034;6.984;2023-04-15T02:25:59;2.87;;;2.20;;
11711;SDS011;5912;51.034;6.984;2023-04-15T02:28:25;3.00;;;2.17;;
11711;SDS011;5912;51.034;6.984;2023-04-15T02:30:51;4.20;;;2.13;;
11711;SDS011;5912;51.034;6.984;2023-04-15T02:33:18;4.17;;;2.37;;
11711;SDS011;5912;51.034;6.984;2023-04-15T02:35:44;4.53;;;2.20;;
11711;SDS011;5912;51.034;6.984;2023-04-15T02:38:10;3.90;;;2.47;;
11711;SDS011;5912;51.034;6.984;2023-04-15T02:40:35;3.03;;;2.37;;
11711;SDS011;5912;51.034;6.984;2023-04-15T02:43:01;2.67;;;2.30;;
11711;SDS011;5912;51.034;6.984;2023-04-15T02:45:27;3.07;;;2.30;;
11711;SDS011;5912;51.034;6.984;2023-04-15T02:47:52;3.50;;;2.33;;
11711;SDS011;5912;51.034;6.984;2023-04-15T02:50:18;4.40;;;2.67;;
11711;SDS011;5912;51.034;6.984;2023-04-15T02:52:44;5.00;;;2.40;;
11711;SDS011;5912;51.034;6.984;2023-04-15T02:55:10;4.03;;;2.83;;
11711;SDS011;5912;51.034;6.984;2023-04-15T02:57:36;3.77;;;2.90;;
11711;SDS011;5912;51.034;6.984;2023-04-15T03:00:03;3.47;;;2.77;;
11711;SDS011;5912;51.034;6.984;2023-04-15T03:02:32;3.40;;;2.50;;
11711;SDS011;5912;51.034;6.984;2023-04-15T03:04:59;4.73;;;2.93;;
11711;SDS011;5912;51.034;6.984;2023-04-15T03:07:24;5.07;;;3.00;;
11711;SDS011;5912;51.034;6.984;2023-04-15T03:09:50;3.43;;;2.63;;
11711;SDS011;5912;51.034;6.984;2023-04-15T03:12:15;6.10;;;3.40;;
11711;SDS011;5912;51.034;6.984;2023-04-15T03:14:40;5.23;;;3.10;;
11711;SDS011;5912;51.034;6.984;2023-04-15T03:17:06;3.57;;;2.57;;
11711;SDS011;5912;51.034;6.984;2023-04-15T03:19:31;5.27;;;3.03;;
11711;SDS011;5912;51.034;6.984;2023-04-15T03:21:57;4.70;;;2.70;;
11711;SDS011;5912;51.034;6.984;2023-04-15T03:24:22;3.77;;;2.90;;
11711;SDS011;5912;51.034;6.984;2023-04-15T03:26:48;4.03;;;2.83;;
11711;SDS011;5912;51.034;6.984;2023-04-15T03:29:14;5.13;;;2.70;;
11711;SDS011;5912;51.034;6.984;2023-04-15T03:31:39;4.33;;;3.00;;
11711;SDS011;5912;51.034;6.984;2023-04-15T03:34:05;6.47;;;3.07;;
11711;SDS011;5912;51.034;6.984;2023-04-15T03:36:30;3.33;;;2.80;;
11711;SDS011;5912;51.034;6.984;2023-04-15T03:38:57;3.60;;;2.70;;
11711;SDS011;5912;51.034;6.984;2023-04-15T03:41:23;6.13;;;3.17;;
11711;SDS011;5912;51.034;6.984;2023-04-15T03:43:48;6.43;;;3.60;;
11711;SDS011;5912;51.034;6.984;2023-04-15T03:46:15;6.10;;;3.13;;
11711;SDS011;5912;51.034;6.984;2023-04-15T03:48:41;4.70;;;2.83;;
11711;SDS011;5912;51.034;6.984;2023-04-15T03:51:06;4.97;;;3.20;;
11711;SDS011;5912;51.034;6.984;2023-04-15T03:53:32;3.00;;;2.63;;
11711;SDS011;5912;51.034;6.984;2023-04-15T03:55:57;5.13;;;3.17;;
11711;SDS011;5912;51.034;6.984;2023-04-15T03:58:22;4.03;;;2.83;;
11711;SDS011;5912;51.034;6.984;2023-04-15T04:00:48;4.70;;;3.00;;
11711;SDS011;5912;51.034;6.984;2023-04-15T04:03:13;4.97;;;3.20;;
11711;SDS011;5912;51.034;6.984;2023-04-15T04:05:38;4.17;;;2.77;;
11711;SDS011;5912;51.034;6.984;2023-04-15T04:08:05;6.73;;;3.20;;
11711;SDS011;5912;51.034;6.984;2023-04-15T04:10:30;4.07;;;3.17;;
11711;SDS011;5912;51.034;6.984;2023-04-15T04:12:56;5.30;;;3.13;;
11711;SDS011;5912;51.034;6.984;2023-04-15T04:15:21;5.53;;;3.20;;
11711;SDS011;5912;51.034;6.984;2023-04-15T04:17:47;4.60;;;2.83;;
11711;SDS011;5912;51.034;6.984;2023-04-15T04:20:12;3.07;;;2.70;;
11711;SDS011;5912;51.034;6.984;2023-04-15T04:22:38;3.10;;;2.80;;
11711;SDS011;5912;51.034;6.984;2023-04-15T04:25:05;3.30;;;2.90;;
11711;SDS011;5912;51.034;6.984;2023-04-15T04:27:32;2.93;;;2.50;;
11711;SDS011;5912;51.034;6.984;2023-04-15T04:29:57;4.20;;;2.63;;
11711;SDS011;5912;51.034;6.984;2023-04-15T04:32:22;4.93;;;3.00;;
11711;SDS011;5912;51.034;6.984;2023-04-15T04:34:48;4.20;;;2.70;;
11711;SDS011;5912;51.034;6.984;2023-04-15T04:37:13;4.13;;;3.07;;
11711;SDS011;5912;51.034;6.984;2023-04-15T04:39:38;4.83;;;3.27;;
11711;SDS011;5912;51.034;6.984;2023-04-15T04:42:04;3.77;;;3.07;;
11711;SDS011;5912;51.034;6.984;2023-04-15T04:44:29;3.83;;;3.23;;
11711;SDS011;5912;51.034;6.984;2023-04-15T04:46:55;4.77;;;3.60;;
11711;SDS011;5912;51.034;6.984;2023-04-15T04:49:21;5.73;;;3.47;;
11711;SDS011;5912;51.034;6.984;2023-04-15T04:51:46;5.70;;;3.57;;
11711;SDS011;5912;51.034;6.984;2023-04-15T04:54:12;5.13;;;3.53;;
11711;SDS011;5912;51.034;6.984;2023-04-15T04:56:38;12.00;;;6.17;;
11711;SDS011;5912;51.034;6.984;2023-04-15T04:59:03;11.70;;;5.50;;
11711;SDS011;5912;51.034;6.984;2023-04-15T05:01:29;8.73;;;4.97;;
11711;SDS011;5912;51.034;6.984;2023-04-15T05:03:54;9.83;;;5.10;;
11711;SDS011;5912;51.034;6.984;2023-04-15T05:06:20;7.63;;;4.17;;
11711;SDS011;5912;51.034;6.984;2023-04-15T05:08:46;7.10;;;4.50;;
11711;SDS011;5912;51.034;6.984;2023-04-15T05:11:11;7.17;;;4.70;;
11711;SDS011;5912;51.034;6.984;2023-04-15T05:13:37;10.57;;;4.87;;
11711;SDS011;5912;51.034;6.984;2023-04-15T05:16:03;9.00;;;4.57;;
11711;SDS011;5912;51.034;6.984;2023-04-15T05:18:29;6.40;;;4.37;;
11711;SDS011;5912;51.034;6.984;2023-04-15T05:20:55;7.17;;;4.70;;
11711;SDS011;5912;51.034;6.984;2023-04-15T05:23:20;8.87;;;4.60;;
11711;SDS011;5912;51.034;6.984;2023-04-15T05:25:46;7.00;;;4.70;;
11711;SDS011;5912;51.034;6.984;2023-04-15T05:28:11;8.40;;;5.60;;
11711;SDS011;5912;51.034;6.984;2023-04-15T05:30:36;11.13;;;5.50;;
11711;SDS011;5912;51.034;6.984;2023-04-15T05:33:02;8.97;;;5.40;;
11711;SDS011;5912;51.034;6.984;2023-04-15T05:35:28;10.67;;;5.73;;
11711;SDS011;5912;51.034;6.984;2023-04-15T05:37:53;10.60;;;6.23;;
11711;SDS011;5912;51.034;6.984;2023-04-15T05:40:18;12.90;;;6.50;;
11711;SDS011;5912;51.034;6.984;2023-04-15T05:42:44;13.80;;;6.50;;
11711;SDS011;5912;51.034;6.984;2023-04-15T05:45:09;11.23;;;6.23;;
11711;SDS011;5912;51.034;6.984;2023-04-15T05:47:35;10.00;;;5.87;;
11711;SDS011;5912;51.034;6.984;2023-04-15T05:50:01;9.33;;;5.77;;
11711;SDS011;5912;51.034;6.984;2023-04-15T05:52:27;7.03;;;4.67;;
11711;SDS011;5912;51.034;6.984;2023-04-15T05:54:52;7.20;;;4.87;;
11711;SDS011;5912;51.034;6.984;2023-04-15T05:57:18;8.30;;;5.17;;
11711;SDS011;5912;51.034;6.984;2023-04-15T05:59:43;10.57;;;5.23;;
11711;SDS011;5912;51.034;6.984;2023-04-15T06:02:09;9.07;;;4.77;;
11711;SDS011;5912;51.034;6.984;2023-04-15T06:04:34;8.77;;;4.90;;
11711;SDS011;5912;51.034;6.984;2023-04-15T06:07:00;5.30;;;4.32;;
11711;SDS011;5912;51.034;6.984;2023-04-15T06:09:26;6.73;;;4.63;;
11711;SDS011;5912;51.034;6.984;2023-04-15T06:11:52;7.77;;;4.70;;
11711;SDS011;5912;51.034;6.984;2023-04-15T06:14:18;5.90;;;4.03;;
11711;SDS011;5912;51.034;6.984;2023-04-15T06:16:43;4.97;;;4.30;;
11711;SDS011;5912;51.034;6.984;2023-04-15T06:19:09;5.15;;;3.95;;
11711;SDS011;5912;51.034;6.984;2023-04-15T06:21:34;6.32;;;3.83;;
11711;SDS011;5912;51.034;6.984;2023-04-15T06:24:00;5.22;;;3.97;;
11711;SDS011;5912;51.034;6.984;2023-04-15T06:26:26;7.70;;;4.28;;
11711;SDS011;5912;51.034;6.984;2023-04-15T06:28:52;7.15;;;4.78;;
11711;SDS011;5912;51.034;6.984;2023-04-15T06:31:17;7.00;;;4.68;;
11711;SDS011;5912;51.034;6.984;2023-04-15T06:33:42;7.18;;;4.75;;
11711;SDS011;5912;51.034;6.984;2023-04-15T06:36:08;7.07;;;4.60;;
11711;SDS011;5912;51.034;6.984;2023-04-15T06:38:33;7.57;;;4.88;;
11711;SDS011;5912;51.034;6.984;2023-04-15T06:40:58;8.38;;;5.10;;
11711;SDS011;5912;51.034;6.984;2023-04-15T06:43:24;7.00;;;4.53;;
11711;SDS011;5912;51.034;6.984;2023-04-15T06:45:49;5.18;;;4.10;;
11711;SDS011;5912;51.034;6.984;2023-04-15T06:48:15;6.40;;;4.30;;
11711;SDS011;5912;51.034;6.984;2023-04-15T06:50:40;4.93;;;3.83;;
11711;SDS011;5912;51.034;6.984;2023-04-15T06:53:05;4.60;;;4.00;;
11711;SDS011;5912;51.034;6.984;2023-04-15T06:55:31;6.10;;;3.90;;
11711;SDS011;5912;51.034;6.984;2023-04-15T06:57:57;4.38;;;3.67;;
11711;SDS011;5912;51.034;6.984;2023-04-15T07:00:23;6.68;;;3.90;;
11711;SDS011;5912;51.034;6.984;2023-04-15T07:02:49;3.90;;;3.30;;
11711;SDS011;5912;51.034;6.984;2023-04-15T07:05:15;5.13;;;3.10;;
11711;SDS011;5912;51.034;6.984;2023-04-15T07:07:40;5.78;;;3.20;;
11711;SDS011;5912;51.034;6.984;2023-04-15T07:10:21;5.47;;;3.65;;
11711;SDS011;5912;51.034;6.984;2023-04-15T07:12:47;4.07;;;2.92;;
11711;SDS011;5912;51.034;6.984;2023-04-15T07:15:14;5.00;;;3.28;;
11711;SDS011;5912;51.034;6.984;2023-04-15T07:17:40;4.45;;;3.58;;
11711;SDS011;5912;51.034;6.984;2023-04-15T07:20:07;3.95;;;3.47;;
11711;SDS011;5912;51.034;6.984;2023-04-15T07:22:32;5.15;;;3.35;;
11711;SDS011;5912;51.034;6.984;2023-04-15T07:24:58;5.72;;;3.40;;
11711;SDS011;5912;51.034;6.984;2023-04-15T07:27:23;5.07;;;3.00;;
11711;SDS011;5912;51.034;6.984;2023-04-15T07:29:49;4.28;;;2.80;;
11711;SDS011;5912;51.034;6.984;2023-04-15T07:32:16;2.53;;;2.10;;
11711;SDS011;5912;51.034;6.984;2023-04-15T07:34:41;3.60;;;2.53;;
11711;SDS011;5912;51.034;6.984;2023-04-15T07:37:07;3.10;;;2.53;;
11711;SDS011;5912;51.034;6.984;2023-04-15T07:39:32;2.90;;;2.33;;
11711;SDS011;5912;51.034;6.984;2023-04-15T07:41:57;2.53;;;2.20;;
11711;SDS011;5912;51.034;6.984;2023-04-15T07:44:23;4.32;;;2.25;;
11711;SDS011;5912;51.034;6.984;2023-04-15T07:46:49;5.43;;;2.47;;
11711;SDS011;5912;51.034;6.984;2023-04-15T07:49:15;4.43;;;2.30;;
11711;SDS011;5912;51.034;6.984;2023-04-15T07:51:40;2.50;;;1.90;;
11711;SDS011;5912;51.034;6.984;2023-04-15T07:54:05;3.35;;;1.85;;
11711;SDS011;5912;51.034;6.984;2023-04-15T07:56:31;2.67;;;1.73;;
11711;SDS011;5912;51.034;6.984;2023-04-15T07:58:56;2.05;;;1.75;;
11711;SDS011;5912;51.034;6.984;2023-04-15T08:01:22;2.80;;;1.90;;
11711;SDS011;5912;51.034;6.984;2023-04-15T08:03:47;2.30;;;1.52;;
11711;SDS011;5912;51.034;6.984;2023-04-15T08:06:12;2.60;;;1.98;;
11711;SDS011;5912;51.034;6.984;2023-04-15T08:08:38;3.35;;;1.80;;
11711;SDS011;5912;51.034;6.984;2023-04-15T08:11:03;1.50;;;1.27;;
11711;SDS011;5912;51.034;6.984;2023-04-15T08:13:29;1.67;;;1.45;;
11711;SDS011;5912;51.034;6.984;2023-04-15T08:16:15;2.38;;;1.60;;
11711;SDS011;5912;51.034;6.984;2023-04-15T08:18:40;1.20;;;1.05;;
11711;SDS011;5912;51.034;6.984;2023-04-15T08:21:06;6.63;;;2.42;;
11711;SDS011;5912;51.034;6.984;2023-04-15T08:23:31;1.40;;;1.30;;
11711;SDS011;5912;51.034;6.984;2023-04-15T08:25:57;2.38;;;1.40;;
11711;SDS011;5912;51.034;6.984;2023-04-15T08:28:41;2.78;;;1.90;;
11711;SDS011;5912;51.034;6.984;2023-04-15T08:31:08;1.85;;;1.38;;
11711;SDS011;5912;51.034;6.984;2023-04-15T08:33:33;1.70;;;1.52;;
11711;SDS011;5912;51.034;6.984;2023-04-15T08:35:59;1.75;;;1.42;;
11711;SDS011;5912;51.034;6.984;2023-04-15T08:38:24;2.03;;;1.60;;
11711;SDS011;5912;51.034;6.984;2023-04-15T08:40:50;2.13;;;1.40;;
11711;SDS011;5912;51.034;6.984;2023-04-15T08:43:23;2.15;;;1.45;;
11711;SDS011;5912;51.034;6.984;2023-04-15T08:45:52;2.08;;;1.65;;
11711;SDS011;5912;51.034;6.984;2023-04-15T08:48:18;2.53;;;1.25;;
11711;SDS011;5912;51.034;6.984;2023-04-15T08:50:45;3.50;;;1.63;;
11711;SDS011;5912;51.034;6.984;2023-04-15T08:53:12;1.25;;;1.15;;
11711;SDS011;5912;51.034;6.984;2023-04-15T08:55:49;1.80;;;1.50;;
11711;SDS011;5912;51.034;6.984;2023-04-15T08:58:16;1.60;;;1.50;;
11711;SDS011;5912;51.034;6.984;2023-04-15T09:00:43;3.30;;;1.50;;
11711;SDS011;5912;51.034;6.984;2023-04-15T09:03:08;1.73;;;1.60;;
11711;SDS011;5912;51.034;6.984;2023-04-15T09:05:37;3.67;;;1.50;;
11711;SDS011;5912;51.034;6.984;2023-04-15T09:08:03;3.17;;;1.73;;
11711;SDS011;5912;51.034;6.984;2023-04-15T09:13:32;2.40;;;1.65;;
11711;SDS011;5912;51.034;6.984;2023-04-15T09:15:57;2.10;;;1.90;;
11711;SDS011;5912;51.034;6.984;2023-04-15T09:18:31;2.30;;;2.00;;
11711;SDS011;5912;51.034;6.984;2023-04-15T09:21:11;2.00;;;1.80;;
11711;SDS011;5912;51.034;6.984;2023-04-15T09:23:40;1.92;;;1.40;;
11711;SDS011;5912;51.034;6.984;2023-04-15T09:26:17;2.17;;;1.60;;
11711;SDS011;5912;51.034;6.984;2023-04-15T09:28:42;1.70;;;1.60;;
11711;SDS011;5912;51.034;6.984;2023-04-15T09:34:05;3.40;;;1.80;;
11711;SDS011;5912;51.034;6.984;2023-04-15T09:36:50;2.42;;;1.58;;
11711;SDS011;5912;51.034;6.984;2023-04-15T09:39:17;1.92;;;1.20;;
11711;SDS011;5912;51.034;6.984;2023-04-15T09:41:43;2.15;;;1.60;;
11711;SDS011;5912;51.034;6.984;2023-04-15T09:44:22;2.00;;;1.60;;
11711;SDS011;5912;51.034;6.984;2023-04-15T09:46:48;2.33;;;1.90;;
11711;SDS011;5912;51.034;6.984;2023-04-15T09:49:13;2.10;;;1.90;;
11711;SDS011;5912;51.034;6.984;2023-04-15T09:51:40;1.95;;;1.65;;
11711;SDS011;5912;51.034;6.984;2023-04-15T09:54:05;2.80;;;2.17;;
11711;SDS011;5912;51.034;6.984;2023-04-15T09:56:33;2.70;;;2.15;;
11711;SDS011;5912;51.034;6.984;2023-04-15T09:59:01;2.13;;;1.92;;
11711;SDS011;5912;51.034;6.984;2023-04-15T10:01:26;2.78;;;2.38;;
11711;SDS011;5912;51.034;6.984;2023-04-15T10:03:51;2.47;;;2.20;;
11711;SDS011;5912;51.034;6.984;2023-04-15T10:06:20;2.92;;;2.30;;
11711;SDS011;5912;51.034;6.984;2023-04-15T10:08:47;2.72;;;1.85;;
11711;SDS011;5912;51.034;6.984;2023-04-15T10:11:13;2.53;;;2.25;;
11711;SDS011;5912;51.034;6.984;2023-04-15T10:13:38;2.45;;;2.25;;
11711;SDS011;5912;51.034;6.984;2023-04-15T10:16:10;2.72;;;2.10;;
11711;SDS011;5912;51.034;6.984;2023-04-15T10:18:46;2.83;;;2.25;;
11711;SDS011;5912;51.034;6.984;2023-04-15T10:21:14;1.85;;;1.73;;
11711;SDS011;5912;51.034;6.984;2023-04-15T10:23:42;2.30;;;2.05;;
11711;SDS011;5912;51.034;6.984;2023-04-15T10:26:09;2.13;;;1.92;;
11711;SDS011;5912;51.034;6.984;2023-04-15T10:28:36;2.30;;;2.10;;
11711;SDS011;5912;51.034;6.984;2023-04-15T10:31:02;2.22;;;2.03;;
11711;SDS011;5912;51.034;6.984;2023-04-15T10:33:29;2.50;;;2.03;;
11711;SDS011;5912;51.034;6.984;2023-04-15T10:35:54;2.28;;;2.05;;
11711;SDS011;5912;51.034;6.984;2023-04-15T10:41:03;4.63;;;1.92;;
11711;SDS011;5912;51.034;6.984;2023-04-15T10:43:44;2.40;;;1.98;;
11711;SDS011;5912;51.034;6.984;2023-04-15T10:46:11;2.22;;;1.95;;
11711;SDS011;5912;51.034;6.984;2023-04-15T10:48:37;2.40;;;2.20;;
11711;SDS011;5912;51.034;6.984;2023-04-15T10:51:02;2.00;;;1.77;;
11711;SDS011;5912;51.034;6.984;2023-04-15T10:53:29;2.63;;;2.25;;
11711;SDS011;5912;51.034;6.984;2023-04-15T10:55:56;3.22;;;2.20;;
11711;SDS011;5912;51.034;6.984;2023-04-15T10:58:22;2.38;;;1.60;;
11711;SDS011;5912;51.034;6.984;2023-04-15T11:00:49;2.03;;;1.48;;
11711;SDS011;5912;51.034;6.984;2023-04-15T11:03:37;1.92;;;1.80;;
11711;SDS011;5912;51.034;6.984;2023-04-15T11:06:04;2.05;;;1.60;;
11711;SDS011;5912;51.034;6.984;2023-04-15T11:08:52;1.70;;;1.50;;
11711;SDS011;5912;51.034;6.984;2023-04-15T11:14:26;1.58;;;1.40;;
11711;SDS011;5912;51.034;6.984;2023-04-15T11:16:52;1.77;;;1.38;;
11711;SDS011;5912;51.034;6.984;2023-04-15T11:19:17;1.40;;;1.27;;
11711;SDS011;5912;51.034;6.984;2023-04-15T11:21:42;1.75;;;1.60;;
11711;SDS011;5912;51.034;6.984;2023-04-15T11:24:08;1.95;;;1.73;;
11711;SDS011;5912;51.034;6.984;2023-04-15T11:26:33;1.58;;;1.48;;
11711;SDS011;5912;51.034;6.984;2023-04-15T11:28:58;1.48;;;1.38;;
11711;SDS011;5912;51.034;6.984;2023-04-15T11:31:25;1.63;;;1.50;;
11711;SDS011;5912;51.034;6.984;2023-04-15T11:36:23;1.90;;;1.63;;
11711;SDS011;5912;51.034;6.984;2023-04-15T11:38:58;2.78;;;1.73;;
11711;SDS011;5912;51.034;6.984;2023-04-15T11:41:23;4.20;;;1.85;;
11711;SDS011;5912;51.034;6.984;2023-04-15T11:43:49;1.70;;;1.60;;
11711;SDS011;5912;51.034;6.984;2023-04-15T11:46:15;1.60;;;1.50;;
11711;SDS011;5912;51.034;6.984;2023-04-15T11:48:41;1.90;;;1.80;;
11711;SDS011;5912;51.034;6.984;2023-04-15T11:51:08;2.20;;;1.95;;
11711;SDS011;5912;51.034;6.984;2023-04-15T11:56:21;2.45;;;2.25;;
11711;SDS011;5912;51.034;6.984;2023-04-15T11:58:50;2.55;;;2.35;;
11711;SDS011;5912;51.034;6.984;2023-04-15T12:01:17;2.25;;;2.05;;
11711;SDS011;5912;51.034;6.984;2023-04-15T12:03:44;2.70;;;2.50;;
11711;SDS011;5912;51.034;6.984;2023-04-15T12:11:12;3.50;;;3.20;;
11711;SDS011;5912;51.034;6.984;2023-04-15T12:13:38;3.60;;;3.30;;
11711;SDS011;5912;51.034;6.984;2023-04-15T12:16:07;4.20;;;3.80;;
11711;SDS011;5912;51.034;6.984;2023-04-15T12:18:32;4.32;;;3.83;;
11711;SDS011;5912;51.034;6.984;2023-04-15T12:21:04;3.80;;;3.50;;
11711;SDS011;5912;51.034;6.984;2023-04-15T12:23:35;5.00;;;3.95;;
11711;SDS011;5912;51.034;6.984;2023-04-15T12:26:04;3.70;;;3.40;;
11711;SDS011;5912;51.034;6.984;2023-04-15T12:28:30;4.65;;;4.25;;
11711;SDS011;5912;51.034;6.984;2023-04-15T12:30:55;4.25;;;3.95;;
11711;SDS011;5912;51.034;6.984;2023-04-15T12:33:21;4.60;;;4.13;;
11711;SDS011;5912;51.034;6.984;2023-04-15T12:35:46;4.72;;;4.32;;
11711;SDS011;5912;51.034;6.984;2023-04-15T12:38:12;4.40;;;3.90;;
11711;SDS011;5912;51.034;6.984;2023-04-15T12:40:37;4.10;;;3.70;;
11711;SDS011;5912;51.034;6.984;2023-04-15T12:43:02;4.43;;;4.03;;
11711;SDS011;5912;51.034;6.984;2023-04-15T12:45:28;3.90;;;3.60;;
11711;SDS011;5912;51.034;6.984;2023-04-15T12:47:53;3.63;;;3.30;;
11711;SDS011;5912;51.034;6.984;2023-04-15T12:50:18;3.60;;;3.30;;
11711;SDS011;5912;51.034;6.984;2023-04-15T12:52:44;5.95;;;3.47;;
11711;SDS011;5912;51.034;6.984;2023-04-15T12:55:09;3.58;;;3.28;;
11711;SDS011;5912;51.034;6.984;2023-04-15T12:57:34;4.10;;;3.60;;
11711;SDS011;5912;51.034;6.984;2023-04-15T13:00:00;3.97;;;3.55;;
11711;SDS011;5912;51.034;6.984;2023-04-15T13:02:25;5.10;;;3.20;;
11711;SDS011;5912;51.034;6.984;2023-04-15T13:04:52;3.72;;;3.42;;
11711;SDS011;5912;51.034;6.984;2023-04-15T13:07:17;4.07;;;3.67;;
11711;SDS011;5912;51.034;6.984;2023-04-15T13:09:43;8.10;;;4.75;;
11711;SDS011;5912;51.034;6.984;2023-04-15T13:12:08;3.83;;;3.45;;
11711;SDS011;5912;51.034;6.984;2023-04-15T13:14:34;4.20;;;3.80;;
11711;SDS011;5912;51.034;6.984;2023-04-15T13:16:59;5.45;;;4.50;;
11711;SDS011;5912;51.034;6.984;2023-04-15T13:19:25;4.65;;;4.25;;
11711;SDS011;5912;51.034;6.984;2023-04-15T13:21:50;4.78;;;4.28;;
11711;SDS011;5912;51.034;6.984;2023-04-15T13:24:16;5.15;;;4.65;;
11711;SDS011;5912;51.034;6.984;2023-04-15T13:26:41;4.07;;;3.78;;
11711;SDS011;5912;51.034;6.984;2023-04-15T13:29:06;4.20;;;3.78;;
11711;SDS011;5912;51.034;6.984;2023-04-15T13:31:31;3.63;;;3.33;;
11711;SDS011;5912;51.034;6.984;2023-04-15T13:33:57;4.93;;;3.67;;
11711;SDS011;5912;51.034;6.984;2023-04-15T13:36:22;4.72;;;4.22;;
11711;SDS011;5912;51.034;6.984;2023-04-15T13:38:47;3.70;;;3.40;;
11711;SDS011;5912;51.034;6.984;2023-04-15T13:41:13;4.13;;;3.80;;
11711;SDS011;5912;51.034;6.984;2023-04-15T13:43:38;4.68;;;4.20;;
11711;SDS011;5912;51.034;6.984;2023-04-15T13:46:03;4.93;;;4.03;;
11711;SDS011;5912;51.034;6.984;2023-04-15T13:48:29;4.78;;;3.80;;
11711;SDS011;5912;51.034;6.984;2023-04-15T13:50:54;4.00;;;3.60;;
11711;SDS011;5912;51.034;6.984;2023-04-15T13:53:19;3.50;;;3.00;;
11711;SDS011;5912;51.034;6.984;2023-04-15T13:55:45;3.65;;;2.88;;
11711;SDS011;5912;51.034;6.984;2023-04-15T13:58:10;3.05;;;2.67;;
11711;SDS011;5912;51.034;6.984;2023-04-15T14:00:36;4.45;;;3.58;;
11711;SDS011;5912;51.034;6.984;2023-04-15T14:03:01;4.18;;;3.78;;
11711;SDS011;5912;51.034;6.984;2023-04-15T14:05:26;4.00;;;3.33;;
11711;SDS011;5912;51.034;6.984;2023-04-15T14:07:51;3.95;;;3.20;;
11711;SDS011;5912;51.034;6.984;2023-04-15T14:10:17;4.55;;;3.22;;
11711;SDS011;5912;51.034;6.984;2023-04-15T14:12:42;4.03;;;2.95;;
11711;SDS011;5912;51.034;6.984;2023-04-15T14:15:08;2.80;;;2.55;;
11711;SDS011;5912;51.034;6.984;2023-04-15T14:17:33;3.17;;;2.88;;
11711;SDS011;5912;51.034;6.984;2023-04-15T14:19:59;3.75;;;2.90;;
11711;SDS011;5912;51.034;6.984;2023-04-15T14:22:24;2.40;;;2.20;;
11711;SDS011;5912;51.034;6.984;2023-04-15T14:24:49;2.38;;;2.17;;
11711;SDS011;5912;51.034;6.984;2023-04-15T14:27:17;2.47;;;2.28;;
11711;SDS011;5912;51.034;6.984;2023-04-15T14:29:42;3.47;;;2.38;;
11711;SDS011;5912;51.034;6.984;2023-04-15T14:32:08;3.08;;;2.38;;
11711;SDS011;5912;51.034;6.984;2023-04-15T14:34:33;2.60;;;2.40;;
11711;SDS011;5912;51.034;6.984;2023-04-15T14:36:58;2.75;;;2.42;;
11711;SDS011;5912;51.034;6.984;2023-04-15T14:39:24;2.70;;;2.03;;
11711;SDS011;5912;51.034;6.984;2023-04-15T14:41:49;2.33;;;2.03;;
11711;SDS011;5912;51.034;6.984;2023-04-15T14:44:14;3.80;;;2.83;;
11711;SDS011;5912;51.034;6.984;2023-04-15T14:46:39;2.38;;;2.00;;
11711;SDS011;5912;51.034;6.984;2023-04-15T14:49:05;2.70;;;2.15;;
11711;SDS011;5912;51.034;6.984;2023-04-15T14:51:31;2.75;;;2.00;;
11711;SDS011;5912;51.034;6.984;2023-04-15T14:53:57;2.50;;;2.30;;
11711;SDS011;5912;51.034;6.984;2023-04-15T14:56:22;2.88;;;2.50;;
11711;SDS011;5912;51.034;6.984;2023-04-15T14:58:47;3.50;;;2.25;;
11711;SDS011;5912;51.034;6.984;2023-04-15T15:01:13;2.72;;;2.28;;
11711;SDS011;5912;51.034;6.984;2023-04-15T15:03:38;2.72;;;2.33;;
11711;SDS011;5912;51.034;6.984;2023-04-15T15:06:04;3.10;;;2.80;;
11711;SDS011;5912;51.034;6.984;2023-04-15T15:08:29;3.50;;;2.42;;
11711;SDS011;5912;51.034;6.984;2023-04-15T15:10:55;3.30;;;2.78;;
11711;SDS011;5912;51.034;6.984;2023-04-15T15:13:20;4.63;;;2.55;;
11711;SDS011;5912;51.034;6.984;2023-04-15T15:15:45;2.33;;;2.13;;